createdAt,value
2019-01-09T00:01:57.071Z,14.90
2019-01-09T00:07:01.055Z,11.93
2019-01-09T00:12:05.202Z,22.33
2019-01-09T00:17:09.273Z,20.03
2019-01-09T00:22:13.260Z,13.30
2019-01-09T00:27:18.018Z,23.50
2019-01-09T00:32:22.143Z,19.40
2019-01-09T00:37:26.092Z,20.23
2019-01-09T00:42:30.002Z,18.33
2019-01-09T00:47:34.183Z,16.43
2019-01-09T00:52:40.826Z,14.27
2019-01-09T00:57:45.888Z,13.40
2019-01-09T01:03:16.780Z,14.80
2019-01-09T01:08:57.998Z,23.90
2019-01-09T01:14:54.301Z,16.80
2019-01-09T01:20:34.266Z,15.23
2019-01-09T01:26:12.529Z,13.13
2019-01-09T01:31:57.104Z,12.33
2019-01-09T01:37:45.001Z,10.90
2019-01-09T01:43:23.229Z,12.60
2019-01-09T01:49:08.011Z,11.63
2019-01-09T01:55:05.511Z,12.17
2019-01-09T02:00:58.414Z,10.67
2019-01-09T02:06:40.746Z,14.23
2019-01-09T02:12:21.349Z,19.20
2019-01-09T02:17:51.197Z,14.13
2019-01-09T02:23:31.873Z,15.03
2019-01-09T02:29:16.319Z,14.30
2019-01-09T02:34:20.939Z,15.60
2019-01-09T02:39:25.013Z,16.70
2019-01-09T02:44:32.436Z,16.60
2019-01-09T02:49:34.824Z,16.77
2019-01-09T02:54:38.912Z,16.10
2019-01-09T02:59:42.934Z,17.93
2019-01-09T03:04:47.101Z,13.53
2019-01-09T03:09:51.021Z,12.40
2019-01-09T03:14:55.083Z,15.93
2019-01-09T03:19:59.171Z,14.73
2019-01-09T03:25:03.407Z,14.30
2019-01-09T03:30:08.004Z,19.70
2019-01-09T03:35:12.324Z,15.20
2019-01-09T03:40:16.453Z,15.90
2019-01-09T03:45:20.586Z,14.37
2019-01-09T03:50:24.686Z,11.40
2019-01-09T03:55:28.931Z,10.53
2019-01-09T04:00:33.132Z,49.63
2019-01-09T04:05:37.260Z,15.93
2019-01-09T04:10:41.467Z,18.53
2019-01-09T04:15:45.631Z,12.27
2019-01-09T04:20:49.903Z,17.27
2019-01-09T04:25:54.003Z,26.67
2019-01-09T04:30:58.044Z,24.20
2019-01-09T04:36:02.478Z,17.97
2019-01-09T04:41:06.519Z,27.97
2019-01-09T04:46:10.415Z,27.17
2019-01-09T04:51:14.453Z,32.53
2019-01-09T04:56:18.584Z,31.73
2019-01-09T05:01:22.710Z,17.90
2019-01-09T05:06:28.970Z,14.23
2019-01-09T05:11:33.367Z,15.57
2019-01-09T05:16:37.273Z,13.00
2019-01-09T05:21:41.329Z,16.17
2019-01-09T05:26:45.313Z,19.40
2019-01-09T05:31:49.566Z,21.43
2019-01-09T05:36:54.088Z,16.03
2019-01-09T05:41:58.047Z,14.60
2019-01-09T05:47:02.290Z,16.23
2019-01-09T05:52:06.273Z,16.47
2019-01-09T05:57:10.508Z,24.60
2019-01-09T06:02:14.425Z,14.90
2019-01-09T06:07:18.897Z,15.70
2019-01-09T06:12:23.018Z,14.60
2019-01-09T06:17:27.095Z,26.83
2019-01-09T06:22:31.132Z,30.83
2019-01-09T06:27:35.045Z,31.10
2019-01-09T06:32:39.222Z,24.43
2019-01-09T06:37:43.900Z,38.23
2019-01-09T06:42:48.044Z,47.67
2019-01-09T06:47:52.183Z,30.27
2019-01-09T06:52:56.386Z,26.07
2019-01-09T06:58:00.381Z,27.70
2019-01-09T07:03:04.288Z,24.40
2019-01-09T07:08:10.598Z,15.53
2019-01-09T07:13:14.705Z,18.40
2019-01-09T07:18:19.118Z,17.10
2019-01-09T07:23:23.044Z,24.63
2019-01-09T07:28:27.188Z,26.00
2019-01-09T07:33:31.206Z,33.60
2019-01-09T07:38:35.810Z,27.07
2019-01-09T07:43:41.098Z,23.73
2019-01-09T07:48:45.115Z,21.73
2019-01-09T07:53:49.199Z,22.27
2019-01-09T07:58:53.128Z,24.67
2019-01-09T08:03:57.643Z,21.67
2019-01-09T08:09:01.748Z,25.60
2019-01-09T08:14:07.746Z,23.43
2019-01-09T08:19:11.945Z,17.33
2019-01-09T08:24:16.387Z,15.67
2019-01-09T08:29:21.435Z,17.10
2019-01-09T08:34:28.521Z,19.85
2019-01-09T08:39:33.282Z,15.72
2019-01-09T08:44:40.773Z,18.48
2019-01-09T08:49:47.321Z,19.23
2019-01-09T08:54:51.288Z,16.87
2019-01-09T08:59:55.527Z,16.30
2019-01-09T09:04:59.722Z,18.00
2019-01-09T09:10:05.515Z,16.75
2019-01-09T09:15:12.046Z,16.05
2019-01-09T09:20:16.352Z,14.47
2019-01-09T09:25:20.746Z,19.67
2019-01-09T09:30:24.952Z,15.57
2019-01-09T09:35:30.334Z,25.05
2019-01-09T09:40:34.715Z,23.30
2019-01-09T09:45:38.805Z,16.53
2019-01-09T09:50:42.951Z,13.45
2019-01-09T09:55:46.926Z,21.62
2019-01-09T10:00:51.075Z,21.73
2019-01-09T10:05:55.224Z,15.75
2019-01-09T10:10:59.522Z,13.58
2019-01-09T10:16:05.319Z,14.90
2019-01-09T10:21:10.102Z,30.15
2019-01-09T10:26:17.676Z,16.62
2019-01-09T10:31:21.917Z,21.82
2019-01-09T10:36:26.906Z,26.20
2019-01-09T10:41:31.699Z,16.40
2019-01-09T10:46:35.759Z,16.42
2019-01-09T10:51:39.664Z,18.52
2019-01-09T10:56:43.730Z,18.25
2019-01-09T11:01:48.156Z,14.97
2019-01-09T11:06:52.258Z,15.83
2019-01-09T11:11:56.357Z,16.20
2019-01-09T11:17:00.659Z,18.10
2019-01-09T11:22:04.659Z,14.18
2019-01-09T11:27:09.445Z,21.35
2019-01-09T11:32:13.414Z,15.30
2019-01-09T11:37:17.552Z,13.50
2019-01-09T11:42:22.442Z,18.35
2019-01-09T11:47:27.475Z,16.65
2019-01-09T11:52:32.534Z,24.67
2019-01-09T11:57:36.925Z,18.98
2019-01-09T12:02:41.106Z,13.78
2019-01-09T12:07:51.433Z,11.25
2019-01-09T12:12:58.835Z,13.00
2019-01-09T12:18:04.702Z,21.52
2019-01-09T12:23:10.332Z,11.40
2019-01-09T12:28:14.843Z,10.13
2019-01-09T12:33:19.309Z,24.25
2019-01-09T12:38:23.765Z,11.73
2019-01-09T12:43:29.385Z,17.02
2019-01-09T12:48:33.821Z,18.42
2019-01-09T12:53:38.099Z,10.68
2019-01-09T12:58:42.236Z,13.48
2019-01-09T13:03:48.031Z,20.23
2019-01-09T13:08:52.028Z,18.27
2019-01-09T13:13:56.529Z,15.45
2019-01-09T13:19:00.531Z,23.02
2019-01-09T13:24:04.553Z,19.17
2019-01-09T13:29:08.704Z,22.40
2019-01-09T13:34:12.674Z,24.18
2019-01-09T13:39:16.757Z,23.02
2019-01-09T13:44:21.931Z,20.60
2019-01-09T13:49:26.105Z,23.55
2019-01-09T13:54:30.091Z,15.85
2019-01-09T13:59:34.063Z,41.53
2019-01-09T14:04:39.008Z,24.57
2019-01-09T14:09:43.088Z,21.62
2019-01-09T14:14:47.265Z,25.60
2019-01-09T14:19:54.389Z,25.70
2019-01-09T14:24:59.031Z,63.15
2019-01-09T14:30:05.020Z,30.60
2019-01-09T14:35:09.520Z,29.72
2019-01-09T14:40:14.776Z,26.35
2019-01-09T14:45:19.683Z,23.00
2019-01-09T14:50:25.426Z,20.80
2019-01-09T14:55:29.641Z,21.97
2019-01-09T15:00:33.997Z,24.10
2019-01-09T15:05:37.953Z,35.35
2019-01-09T15:10:42.031Z,39.95
2019-01-09T15:15:46.524Z,44.38
2019-01-09T15:20:50.433Z,60.90
2019-01-09T15:25:56.494Z,61.05
2019-01-09T15:31:01.897Z,39.50
2019-01-09T15:36:08.988Z,54.40
2019-01-09T15:41:13.177Z,53.38
2019-01-09T15:46:18.248Z,39.98
2019-01-09T15:51:22.247Z,65.22
2019-01-09T15:56:26.746Z,56.08
2019-01-09T16:01:30.993Z,82.45
2019-01-09T16:06:35.337Z,61.80
2019-01-09T16:11:39.450Z,47.58
2019-01-09T16:16:44.843Z,34.78
2019-01-09T16:21:50.149Z,43.45
2019-01-09T16:26:54.352Z,52.90
2019-01-09T16:32:00.214Z,69.37
2019-01-09T16:37:07.183Z,88.12
2019-01-09T16:42:11.890Z,73.55
2019-01-09T16:47:17.694Z,73.65
2019-01-09T16:52:23.160Z,68.95
2019-01-09T16:57:30.295Z,90.75
2019-01-09T17:02:34.734Z,97.50
2019-01-09T17:07:38.691Z,92.40
2019-01-09T17:12:43.023Z,113.95
2019-01-09T17:17:47.412Z,128.62
2019-01-09T17:22:51.895Z,122.82
2019-01-09T17:27:55.961Z,88.75
2019-01-09T17:33:00.396Z,94.70
2019-01-09T17:38:05.127Z,133.05
2019-01-09T17:43:09.916Z,106.25
2019-01-09T17:48:15.322Z,153.05
2019-01-09T17:53:19.931Z,160.48
2019-01-09T17:58:24.866Z,151.73
2019-01-09T18:03:30.501Z,151.53
2019-01-09T18:08:34.672Z,80.12
2019-01-09T18:13:38.997Z,122.00
2019-01-09T18:18:45.096Z,113.83
2019-01-09T18:23:49.128Z,94.03
2019-01-09T18:28:53.391Z,130.35
2019-01-09T18:34:09.431Z,111.60
2019-01-09T18:39:38.895Z,89.92
2019-01-09T18:45:11.158Z,44.48
2019-01-09T18:50:57.683Z,24.52
2019-01-09T18:56:01.819Z,39.58
2019-01-09T19:01:07.829Z,34.75
2019-01-09T19:06:12.088Z,31.25
2019-01-09T19:11:16.984Z,34.27
2019-01-09T19:16:20.962Z,31.00
2019-01-09T19:21:25.310Z,32.25
2019-01-09T19:26:32.603Z,36.95
2019-01-09T19:31:39.751Z,48.15
2019-01-09T19:36:44.895Z,33.20
2019-01-09T19:41:48.893Z,28.57
2019-01-09T19:46:52.866Z,33.58
2019-01-09T19:51:57.344Z,24.10
2019-01-09T19:57:01.410Z,37.45
2019-01-09T20:02:05.837Z,50.78
2019-01-09T20:07:12.008Z,28.70
2019-01-09T20:12:16.395Z,41.47
2019-01-09T20:17:20.469Z,40.43
2019-01-09T20:22:24.701Z,27.82
2019-01-09T20:27:29.251Z,39.75
2019-01-09T20:32:33.979Z,36.55
2019-01-09T20:37:38.499Z,26.35
2019-01-09T20:42:42.899Z,56.70
2019-01-09T20:47:47.318Z,46.98
2019-01-09T20:52:52.032Z,52.65
2019-01-09T20:57:56.142Z,54.63
2019-01-09T21:03:05.494Z,31.60
2019-01-09T21:08:09.631Z,43.23
2019-01-09T21:13:13.970Z,55.83
2019-01-09T21:18:18.150Z,56.77
2019-01-09T21:23:22.499Z,70.92
2019-01-09T21:28:26.891Z,49.63
2019-01-09T21:33:31.090Z,59.80
2019-01-09T21:38:35.361Z,53.48
2019-01-09T21:43:40.047Z,54.65
2019-01-09T21:48:44.369Z,45.75
2019-01-09T21:53:50.859Z,41.08
2019-01-09T21:58:55.196Z,32.13
2019-01-09T22:03:59.812Z,32.25
2019-01-09T22:09:06.633Z,42.50
2019-01-09T22:14:11.505Z,37.35
2019-01-09T22:19:15.543Z,36.08
2019-01-09T22:24:19.646Z,60.73
2019-01-09T22:29:23.775Z,61.00
2019-01-09T22:34:27.708Z,51.35
2019-01-09T22:39:31.696Z,41.67
2019-01-09T22:44:35.932Z,43.05
2019-01-09T22:49:40.063Z,52.65
2019-01-09T22:54:44.133Z,36.45
2019-01-09T22:59:48.946Z,49.03
2019-01-09T23:04:53.456Z,36.30
2019-01-09T23:09:58.425Z,28.65
2019-01-09T23:15:04.868Z,35.75
2019-01-09T23:20:09.912Z,29.10
2019-01-09T23:25:14.226Z,25.95
2019-01-09T23:30:18.875Z,23.73
2019-01-09T23:35:23.968Z,21.68
2019-01-09T23:40:28.195Z,29.27
2019-01-09T23:45:32.280Z,42.60
2019-01-09T23:50:36.466Z,35.90
2019-01-09T23:55:41.823Z,47.30
